Stonefort, IL (62987)

1:25 AM CDT on September 05, 2015 (GMT -0500)
St Marys Church on Old Hwy 13 | | Change Station
CLOSE
Current Station
Personal Weather Station
Location: Harrisburg, IL
Elevation: 400 ft
Nearby Weather Stations

Elev 400 ft 37.74 °N, 88.57 °W | Updated 24 seconds ago

Clear
Clear
68.5 °F
Feels Like 68.5 °F
N
0.0
Wind Variable Wind from North

Today
High -- | Low -- °F
--% Chance of Precip.
Yesterday
High -- | Low -- °F
Precip. -- in
6:28 AM 7:18 PM
Waning Gibbous, 52% visible
Pressure 30.04 in
Visibility 4.0 miles
Clouds Clear
Dew Point 68 °F
Humidity 99%
Rainfall 0.00 in
Snow Depth Not available.
UV 0 out of 12
Pollen 10.80 out of 12
Air Quality Not available.
Flu Activity Not available.
METAR KHSB 050615Z AUTO 00000KT 4SM BR CLR 21/20 A3004 RMK AO2 T02080202
Pressure 30.04 in
Visibility 4.0 miles
Clouds Clear
Dew Point 68 °F
Humidity 99%
Rainfall 0.00 in
Snow Depth Not available.
UV 0 out of 12
Pollen 10.80 out of 12
Air Quality Not available.
Flu Activity Not available.
METAR KHSB 050615Z AUTO 00000KT 4SM BR CLR 21/20 A3004 RMK AO2 T02080202

10-Day Weather Forecast

×

Almanac

Astronomy

Sep. 05, 2015 Rise Set
Actual Time
Civil Twilight
Nautical Twilight
Astronomical Twilight
Moon
Length of Visible Light
Length of Day
Tomorrow will be .
, % of the Moon is Illuminated

Today's Extremes

State Highs State Lows

Community

WunderPhotos

Upload Photos

1,852,430 photos uploaded!

WunderBlogs® & News

Nearby

Air Quality

  Air Quality AQ Index Pollutant
Not available.

Snow Depth

Station Depth Elevation

Earthquake Activity

City Distance Mag. Time & Date
Minimum magnitude displayed is 2.5.

Coastal Water Temperatures

Place Temperature

Stations

Nearby Weather Stations

Station Location Temp. Windchill Dew Point Humidity Wind Precip. Elev Updated Type